To NAV CANADA Home Page Login to a new session Search on AWWS site Feedback and Comments Disclaimer Vers la page française équivalente Tips FAQ What's new on the site To the Forecasts and Observations / NOTAM section To "File a Flight Plan" website Publications and other links Update of the User's profile FIC Telephone Numbers My Weather Data Folder Route Weather Data Regional Weather Data Local Weather Data To the Forecasts and Observations / NOTAM section
Request Generated 07/25/2016 at 06:14:39 UTC . Weather information available at that time is displayed.

METAR/TAF

MONTREAL INTL (MIRABEL)/QC    

METAR CYMX 250600Z VRB02KT 25SM BKN140 17/16 A2993 RMK AC6 SLP138
DENSITY ALT 500FT=
METAR CYMX 250500Z 00000KT 25SM BKN120 17/16 A2994 RMK AC7 SLP142
DENSITY ALT 500FT=
METAR CYMX 250400Z 10002KT 25SM BKN110 18/16 A2995 RMK AC7 SLP144
DENSITY ALT 600FT=

TAF CYMX 250538Z 2506/2606 VRB03KT P6SM BKN100 OVC170
FM251200 VRB03KT P6SM -SHRA BKN060 BKN260
FM251500 16006KT P6SM BKN050 BKN220 PROB30 2517/2520 2SM +TSRA BR
BKN015CB
FM252000 19006KT P6SM BKN025 BKN190 TEMPO 2520/2603 BKN020 BKN190
FM260300 25006KT P6SM BKN070
RMK NXT FCST BY 251200Z=
Your time UTC time
Weather data provided by Environment Canada and NAV CANADA